sensor_id;sensor_type;location;lat;lon;timestamp;pressure;altitude;pressure_sealevel;temperature;humidity
141;BME280;65;48.778;9.160;2022-10-16T00:02:16;98416.72;;;15.59;100.00
141;BME280;65;48.778;9.160;2022-10-16T00:04:41;98414.16;;;15.57;100.00
141;BME280;65;48.778;9.160;2022-10-16T00:07:06;98412.94;;;15.50;100.00
141;BME280;65;48.778;9.160;2022-10-16T00:09:32;98401.94;;;15.43;100.00
141;BME280;65;48.778;9.160;2022-10-16T00:11:57;98405.22;;;15.36;100.00
141;BME280;65;48.778;9.160;2022-10-16T00:14:22;98401.22;;;15.30;100.00
141;BME280;65;48.778;9.160;2022-10-16T00:16:48;98405.56;;;15.31;100.00
141;BME280;65;48.778;9.160;2022-10-16T00:19:13;98402.91;;;15.31;100.00
141;BME280;65;48.778;9.160;2022-10-16T00:21:38;98405.34;;;15.23;100.00
141;BME280;65;48.778;9.160;2022-10-16T00:24:06;98398.81;;;15.16;100.00
141;BME280;65;48.778;9.160;2022-10-16T00:26:34;98405.44;;;15.10;100.00
141;BME280;65;48.778;9.160;2022-10-16T00:29:03;98406.03;;;15.03;100.00
141;BME280;65;48.778;9.160;2022-10-16T00:31:29;98408.47;;;15.06;100.00
141;BME280;65;48.778;9.160;2022-10-16T00:33:55;98414.53;;;15.08;100.00
141;BME280;65;48.778;9.160;2022-10-16T00:36:34;98411.25;;;15.04;100.00
141;BME280;65;48.778;9.160;2022-10-16T00:38:59;98406.50;;;14.97;100.00
141;BME280;65;48.778;9.160;2022-10-16T00:41:26;98407.94;;;14.90;100.00
141;BME280;65;48.778;9.160;2022-10-16T00:43:58;98414.72;;;14.82;100.00
141;BME280;65;48.778;9.160;2022-10-16T00:51:25;98409.97;;;14.75;100.00
141;BME280;65;48.778;9.160;2022-10-16T00:53:53;98398.72;;;14.71;100.00
141;BME280;65;48.778;9.160;2022-10-16T00:56:19;98408.41;;;14.72;100.00
141;BME280;65;48.778;9.160;2022-10-16T00:58:45;98410.56;;;14.67;100.00
141;BME280;65;48.778;9.160;2022-10-16T01:01:10;98409.84;;;14.65;100.00
141;BME280;65;48.778;9.160;2022-10-16T01:03:36;98416.97;;;14.65;100.00
141;BME280;65;48.778;9.160;2022-10-16T01:09:11;98420.97;;;14.70;100.00
141;BME280;65;48.778;9.160;2022-10-16T01:11:44;98413.84;;;14.82;100.00
141;BME280;65;48.778;9.160;2022-10-16T01:17:00;98431.41;;;14.84;100.00
141;BME280;65;48.778;9.160;2022-10-16T01:21:57;98423.78;;;14.91;100.00
141;BME280;65;48.778;9.160;2022-10-16T01:27:18;98419.81;;;14.97;100.00
141;BME280;65;48.778;9.160;2022-10-16T01:34:53;98425.97;;;14.97;100.00
141;BME280;65;48.778;9.160;2022-10-16T01:37:31;98419.94;;;14.95;100.00
141;BME280;65;48.778;9.160;2022-10-16T01:39:59;98413.25;;;14.90;100.00
141;BME280;65;48.778;9.160;2022-10-16T01:42:30;98425.00;;;14.87;100.00
141;BME280;65;48.778;9.160;2022-10-16T01:44:58;98417.97;;;14.86;100.00
141;BME280;65;48.778;9.160;2022-10-16T01:47:25;98423.31;;;14.86;100.00
141;BME280;65;48.778;9.160;2022-10-16T01:49:52;98414.47;;;14.85;100.00
141;BME280;65;48.778;9.160;2022-10-16T01:52:23;98409.25;;;14.84;100.00
141;BME280;65;48.778;9.160;2022-10-16T01:54:53;98409.88;;;14.87;100.00
141;BME280;65;48.778;9.160;2022-10-16T01:57:21;98399.00;;;14.91;100.00
141;BME280;65;48.778;9.160;2022-10-16T01:59:51;98409.53;;;14.92;100.00
141;BME280;65;48.778;9.160;2022-10-16T02:02:19;98406.84;;;14.92;100.00
141;BME280;65;48.778;9.160;2022-10-16T02:04:48;98407.69;;;14.93;100.00
141;BME280;65;48.778;9.160;2022-10-16T02:07:15;98407.69;;;14.93;100.00
141;BME280;65;48.778;9.160;2022-10-16T02:09:40;98407.59;;;14.94;100.00
141;BME280;65;48.778;9.160;2022-10-16T02:12:11;98399.47;;;14.96;100.00
141;BME280;65;48.778;9.160;2022-10-16T02:14:40;98410.84;;;14.98;100.00
141;BME280;65;48.778;9.160;2022-10-16T02:17:15;98412.56;;;14.99;100.00
141;BME280;65;48.778;9.160;2022-10-16T02:19:42;98407.34;;;14.97;100.00
141;BME280;65;48.778;9.160;2022-10-16T02:22:15;98417.25;;;14.95;100.00
141;BME280;65;48.778;9.160;2022-10-16T02:27:40;98412.06;;;14.94;100.00
141;BME280;65;48.778;9.160;2022-10-16T02:30:29;98409.41;;;14.94;100.00
141;BME280;65;48.778;9.160;2022-10-16T02:32:53;98409.94;;;15.10;100.00
141;BME280;65;48.778;9.160;2022-10-16T02:35:20;98399.28;;;15.21;100.00
141;BME280;65;48.778;9.160;2022-10-16T02:37:48;98402.06;;;15.19;100.00
141;BME280;65;48.778;9.160;2022-10-16T02:40:18;98406.31;;;15.22;100.00
141;BME280;65;48.778;9.160;2022-10-16T02:42:44;98404.97;;;15.28;100.00
141;BME280;65;48.778;9.160;2022-10-16T02:45:10;98401.47;;;15.27;100.00
141;BME280;65;48.778;9.160;2022-10-16T02:47:36;98408.72;;;15.36;100.00
141;BME280;65;48.778;9.160;2022-10-16T02:50:03;98408.84;;;15.46;100.00
141;BME280;65;48.778;9.160;2022-10-16T02:52:28;98407.03;;;15.46;100.00
141;BME280;65;48.778;9.160;2022-10-16T02:54:54;98410.88;;;15.54;100.00
141;BME280;65;48.778;9.160;2022-10-16T02:57:19;98410.16;;;15.51;100.00
141;BME280;65;48.778;9.160;2022-10-16T02:59:45;98428.22;;;15.48;100.00
141;BME280;65;48.778;9.160;2022-10-16T03:02:10;98421.06;;;15.48;100.00
141;BME280;65;48.778;9.160;2022-10-16T03:04:35;98424.44;;;15.50;100.00
141;BME280;65;48.778;9.160;2022-10-16T03:07:01;98423.13;;;15.56;100.00
141;BME280;65;48.778;9.160;2022-10-16T03:09:27;98430.06;;;15.70;100.00
141;BME280;65;48.778;9.160;2022-10-16T03:11:53;98425.69;;;15.58;100.00
141;BME280;65;48.778;9.160;2022-10-16T03:14:24;98423.59;;;15.50;100.00
141;BME280;65;48.778;9.160;2022-10-16T03:16:50;98423.00;;;15.46;100.00
141;BME280;65;48.778;9.160;2022-10-16T03:19:19;98417.31;;;15.40;100.00
141;BME280;65;48.778;9.160;2022-10-16T03:21:44;98417.31;;;15.40;100.00
141;BME280;65;48.778;9.160;2022-10-16T03:24:10;98427.59;;;15.33;100.00
141;BME280;65;48.778;9.160;2022-10-16T03:26:35;98428.34;;;15.24;100.00
141;BME280;65;48.778;9.160;2022-10-16T03:29:01;98427.84;;;15.19;100.00
141;BME280;65;48.778;9.160;2022-10-16T03:31:28;98427.59;;;15.11;100.00
141;BME280;65;48.778;9.160;2022-10-16T03:33:54;98424.44;;;15.06;100.00
141;BME280;65;48.778;9.160;2022-10-16T03:36:19;98426.47;;;15.02;100.00
141;BME280;65;48.778;9.160;2022-10-16T03:38:44;98421.38;;;14.99;100.00
141;BME280;65;48.778;9.160;2022-10-16T03:41:10;98432.63;;;15.03;100.00
141;BME280;65;48.778;9.160;2022-10-16T03:43:35;98426.72;;;14.99;100.00
141;BME280;65;48.778;9.160;2022-10-16T03:46:01;98424.66;;;15.03;100.00
141;BME280;65;48.778;9.160;2022-10-16T03:48:26;98432.06;;;15.10;100.00
141;BME280;65;48.778;9.160;2022-10-16T03:50:51;98433.88;;;15.10;100.00
141;BME280;65;48.778;9.160;2022-10-16T03:53:17;98432.91;;;15.11;100.00
141;BME280;65;48.778;9.160;2022-10-16T03:55:42;98435.22;;;15.04;100.00
141;BME280;65;48.778;9.160;2022-10-16T03:58:08;98436.63;;;14.97;100.00
141;BME280;65;48.778;9.160;2022-10-16T04:00:33;98437.47;;;14.98;100.00
141;BME280;65;48.778;9.160;2022-10-16T04:03:00;98439.25;;;14.86;100.00
141;BME280;65;48.778;9.160;2022-10-16T04:05:26;98430.78;;;14.81;100.00
141;BME280;65;48.778;9.160;2022-10-16T04:07:51;98440.22;;;14.74;100.00
141;BME280;65;48.778;9.160;2022-10-16T04:10:16;98436.09;;;14.70;100.00
141;BME280;65;48.778;9.160;2022-10-16T04:12:42;98439.09;;;14.65;100.00
141;BME280;65;48.778;9.160;2022-10-16T04:15:08;98441.88;;;14.64;100.00
141;BME280;65;48.778;9.160;2022-10-16T04:17:33;98438.59;;;14.60;100.00
141;BME280;65;48.778;9.160;2022-10-16T04:19:58;98436.06;;;14.59;100.00
141;BME280;65;48.778;9.160;2022-10-16T04:22:24;98443.31;;;14.57;100.00
141;BME280;65;48.778;9.160;2022-10-16T04:24:49;98432.91;;;14.53;100.00
141;BME280;65;48.778;9.160;2022-10-16T04:27:14;98435.22;;;14.58;100.00
141;BME280;65;48.778;9.160;2022-10-16T04:29:47;98437.97;;;14.57;100.00
141;BME280;65;48.778;9.160;2022-10-16T04:32:12;98439.91;;;14.54;100.00
141;BME280;65;48.778;9.160;2022-10-16T04:34:47;98438.22;;;14.53;100.00
141;BME280;65;48.778;9.160;2022-10-16T04:37:12;98441.84;;;14.52;100.00
141;BME280;65;48.778;9.160;2022-10-16T04:39:37;98434.81;;;14.51;100.00
141;BME280;65;48.778;9.160;2022-10-16T04:42:03;98440.75;;;14.55;100.00
141;BME280;65;48.778;9.160;2022-10-16T04:44:28;98439.06;;;14.54;100.00
141;BME280;65;48.778;9.160;2022-10-16T04:46:53;98450.44;;;14.56;100.00
141;BME280;65;48.778;9.160;2022-10-16T04:49:19;98458.41;;;14.56;100.00
141;BME280;65;48.778;9.160;2022-10-16T04:51:44;98457.44;;;14.57;100.00
141;BME280;65;48.778;9.160;2022-10-16T04:54:15;98462.03;;;14.55;100.00
141;BME280;65;48.778;9.160;2022-10-16T04:56:41;98464.69;;;14.55;100.00
141;BME280;65;48.778;9.160;2022-10-16T04:59:13;98465.53;;;14.55;100.00
141;BME280;65;48.778;9.160;2022-10-16T05:01:39;98467.13;;;14.58;100.00
141;BME280;65;48.778;9.160;2022-10-16T05:04:05;98475.22;;;14.57;100.00
141;BME280;65;48.778;9.160;2022-10-16T05:06:30;98470.75;;;14.57;100.00
141;BME280;65;48.778;9.160;2022-10-16T05:08:56;98476.06;;;14.57;100.00
141;BME280;65;48.778;9.160;2022-10-16T05:11:21;98477.75;;;14.58;100.00
141;BME280;65;48.778;9.160;2022-10-16T05:13:47;98477.31;;;14.64;100.00
141;BME280;65;48.778;9.160;2022-10-16T05:16:12;98471.97;;;14.64;100.00
141;BME280;65;48.778;9.160;2022-10-16T05:18:37;98471.13;;;14.64;100.00
141;BME280;65;48.778;9.160;2022-10-16T05:21:03;98474.75;;;14.63;100.00
141;BME280;65;48.778;9.160;2022-10-16T05:23:28;98469.56;;;14.61;100.00
141;BME280;65;48.778;9.160;2022-10-16T05:25:58;98465.19;;;14.60;100.00
141;BME280;65;48.778;9.160;2022-10-16T05:28:27;98473.41;;;14.57;100.00
141;BME280;65;48.778;9.160;2022-10-16T05:30:54;98464.94;;;14.52;100.00
141;BME280;65;48.778;9.160;2022-10-16T05:33:23;98461.75;;;14.47;100.00
141;BME280;65;48.778;9.160;2022-10-16T05:35:49;98464.72;;;14.42;100.00
141;BME280;65;48.778;9.160;2022-10-16T05:38:15;98470.47;;;14.36;100.00
141;BME280;65;48.778;9.160;2022-10-16T05:40:41;98473.47;;;14.32;100.00
141;BME280;65;48.778;9.160;2022-10-16T05:43:06;98488.19;;;14.24;100.00
141;BME280;65;48.778;9.160;2022-10-16T05:45:31;98483.31;;;14.18;100.00
141;BME280;65;48.778;9.160;2022-10-16T05:47:57;98485.47;;;14.13;100.00
141;BME280;65;48.778;9.160;2022-10-16T05:50:22;98483.53;;;14.15;100.00
141;BME280;65;48.778;9.160;2022-10-16T05:52:47;98481.50;;;14.19;100.00
141;BME280;65;48.778;9.160;2022-10-16T05:55:13;98486.72;;;14.20;100.00
141;BME280;65;48.778;9.160;2022-10-16T05:57:38;98487.97;;;14.28;100.00
141;BME280;65;48.778;9.160;2022-10-16T06:00:04;98485.81;;;14.33;100.00
141;BME280;65;48.778;9.160;2022-10-16T06:02:29;98491.63;;;14.38;100.00
141;BME280;65;48.778;9.160;2022-10-16T06:04:55;98499.38;;;14.41;100.00
141;BME280;65;48.778;9.160;2022-10-16T06:07:21;98503.56;;;14.45;100.00
141;BME280;65;48.778;9.160;2022-10-16T06:09:50;98504.09;;;14.50;100.00
141;BME280;65;48.778;9.160;2022-10-16T06:12:16;98510.13;;;14.52;100.00
141;BME280;65;48.778;9.160;2022-10-16T06:14:42;98504.59;;;14.55;100.00
141;BME280;65;48.778;9.160;2022-10-16T06:17:07;98510.41;;;14.60;100.00
141;BME280;65;48.778;9.160;2022-10-16T06:19:32;98509.97;;;14.66;100.00
141;BME280;65;48.778;9.160;2022-10-16T06:21:58;98521.09;;;14.71;100.00
141;BME280;65;48.778;9.160;2022-10-16T06:24:24;98514.34;;;14.78;100.00
141;BME280;65;48.778;9.160;2022-10-16T06:26:49;98515.47;;;14.87;100.00
141;BME280;65;48.778;9.160;2022-10-16T06:29:15;98521.66;;;14.87;100.00
141;BME280;65;48.778;9.160;2022-10-16T06:31:40;98518.63;;;14.92;100.00
141;BME280;65;48.778;9.160;2022-10-16T06:34:07;98521.78;;;14.97;100.00
141;BME280;65;48.778;9.160;2022-10-16T06:36:35;98520.47;;;15.03;100.00
141;BME280;65;48.778;9.160;2022-10-16T06:39:01;98520.66;;;15.12;100.00
141;BME280;65;48.778;9.160;2022-10-16T06:41:27;98525.88;;;15.25;100.00
141;BME280;65;48.778;9.160;2022-10-16T06:43:52;98528.06;;;15.31;100.00
141;BME280;65;48.778;9.160;2022-10-16T06:46:21;98533.91;;;15.36;100.00
141;BME280;65;48.778;9.160;2022-10-16T06:48:47;98540.44;;;15.43;100.00
141;BME280;65;48.778;9.160;2022-10-16T06:53:45;98547.00;;;15.50;100.00
141;BME280;65;48.778;9.160;2022-10-16T06:56:13;98549.41;;;15.54;100.00
141;BME280;65;48.778;9.160;2022-10-16T06:58:39;98549.41;;;15.54;100.00
141;BME280;65;48.778;9.160;2022-10-16T07:01:05;98554.00;;;15.51;100.00
141;BME280;65;48.778;9.160;2022-10-16T07:03:31;98548.25;;;15.58;100.00
141;BME280;65;48.778;9.160;2022-10-16T07:05:56;98552.66;;;15.70;100.00
141;BME280;65;48.778;9.160;2022-10-16T07:08:22;98562.22;;;15.84;100.00
141;BME280;65;48.778;9.160;2022-10-16T07:10:47;98560.63;;;15.92;100.00
141;BME280;65;48.778;9.160;2022-10-16T07:13:13;98564.38;;;16.12;100.00
141;BME280;65;48.778;9.160;2022-10-16T07:15:39;98568.63;;;16.26;100.00
141;BME280;65;48.778;9.160;2022-10-16T07:18:05;98571.53;;;16.34;100.00
141;BME280;65;48.778;9.160;2022-10-16T07:20:31;98571.63;;;16.43;100.00
141;BME280;65;48.778;9.160;2022-10-16T07:22:56;98580.38;;;16.34;100.00
141;BME280;65;48.778;9.160;2022-10-16T07:25:21;98584.88;;;16.34;100.00
141;BME280;65;48.778;9.160;2022-10-16T07:27:47;98586.81;;;16.32;100.00
141;BME280;65;48.778;9.160;2022-10-16T07:30:12;98599.44;;;16.30;100.00
141;BME280;65;48.778;9.160;2022-10-16T07:32:38;98604.53;;;16.22;100.00
141;BME280;65;48.778;9.160;2022-10-16T07:35:04;98610.84;;;16.21;100.00
141;BME280;65;48.778;9.160;2022-10-16T07:37:30;98597.09;;;16.14;100.00
141;BME280;65;48.778;9.160;2022-10-16T07:39:55;98596.38;;;16.12;100.00
141;BME280;65;48.778;9.160;2022-10-16T07:42:20;98599.19;;;16.22;100.00
141;BME280;65;48.778;9.160;2022-10-16T07:44:46;98597.84;;;16.27;100.00
141;BME280;65;48.778;9.160;2022-10-16T07:47:11;98600.63;;;16.37;100.00
141;BME280;65;48.778;9.160;2022-10-16T07:49:37;98609.72;;;16.45;100.00
141;BME280;65;48.778;9.160;2022-10-16T07:52:02;98610.78;;;16.54;100.00
141;BME280;65;48.778;9.160;2022-10-16T07:54:27;98615.88;;;16.57;100.00
141;BME280;65;48.778;9.160;2022-10-16T07:56:53;98614.53;;;16.63;100.00
141;BME280;65;48.778;9.160;2022-10-16T07:59:18;98622.19;;;16.67;100.00
141;BME280;65;48.778;9.160;2022-10-16T08:01:43;98620.72;;;16.74;100.00
141;BME280;65;48.778;9.160;2022-10-16T08:04:09;98622.41;;;16.75;100.00
141;BME280;65;48.778;9.160;2022-10-16T08:06:39;98631.16;;;16.89;100.00
141;BME280;65;48.778;9.160;2022-10-16T08:09:06;98624.78;;;17.01;99.78
141;BME280;65;48.778;9.160;2022-10-16T08:11:32;98618.66;;;17.21;96.83
141;BME280;65;48.778;9.160;2022-10-16T08:13:58;98621.94;;;17.46;99.63
141;BME280;65;48.778;9.160;2022-10-16T08:16:23;98618.78;;;17.73;98.16
141;BME280;65;48.778;9.160;2022-10-16T08:18:49;98620.00;;;17.89;92.73
141;BME280;65;48.778;9.160;2022-10-16T08:21:19;98622.97;;;18.17;92.77
141;BME280;65;48.778;9.160;2022-10-16T08:23:45;98616.88;;;18.66;92.07
141;BME280;65;48.778;9.160;2022-10-16T08:26:11;98629.19;;;19.07;88.60
141;BME280;65;48.778;9.160;2022-10-16T08:28:37;98634.22;;;18.72;87.53
141;BME280;65;48.778;9.160;2022-10-16T08:33:32;98642.47;;;19.09;82.73
141;BME280;65;48.778;9.160;2022-10-16T08:36:00;98649.78;;;19.07;81.82
141;BME280;65;48.778;9.160;2022-10-16T08:38:25;98648.41;;;19.12;84.76
141;BME280;65;48.778;9.160;2022-10-16T08:40:51;98651.38;;;19.09;81.61
141;BME280;65;48.778;9.160;2022-10-16T08:48:50;98653.84;;;18.51;87.00
141;BME280;65;48.778;9.160;2022-10-16T08:53:54;98644.56;;;18.55;87.33
141;BME280;65;48.778;9.160;2022-10-16T08:56:20;98647.38;;;18.54;88.01
141;BME280;65;48.778;9.160;2022-10-16T08:58:46;98647.72;;;18.40;89.06
141;BME280;65;48.778;9.160;2022-10-16T09:01:15;98660.25;;;18.39;87.85
141;BME280;65;48.778;9.160;2022-10-16T09:17:49;98636.84;;;19.60;84.06
141;BME280;65;48.778;9.160;2022-10-16T09:20:22;98657.13;;;20.01;80.19
141;BME280;65;48.778;9.160;2022-10-16T09:22:52;98662.69;;;20.37;75.88
141;BME280;65;48.778;9.160;2022-10-16T09:25:21;98669.75;;;20.38;79.09
141;BME280;65;48.778;9.160;2022-10-16T09:27:56;98667.81;;;20.30;75.41
141;BME280;65;48.778;9.160;2022-10-16T09:30:22;98665.53;;;20.35;72.73
141;BME280;65;48.778;9.160;2022-10-16T09:32:51;98677.28;;;20.15;74.43
141;BME280;65;48.778;9.160;2022-10-16T09:35:20;98673.25;;;19.92;75.83
141;BME280;65;48.778;9.160;2022-10-16T09:37:49;98676.66;;;19.65;76.80
141;BME280;65;48.778;9.160;2022-10-16T09:40:35;98674.41;;;19.60;78.65
141;BME280;65;48.778;9.160;2022-10-16T09:48:20;98679.47;;;19.63;80.62
141;BME280;65;48.778;9.160;2022-10-16T09:51:00;98676.09;;;19.80;78.74
141;BME280;65;48.778;9.160;2022-10-16T09:53:38;98687.47;;;20.11;79.41
141;BME280;65;48.778;9.160;2022-10-16T09:56:04;98681.31;;;20.58;74.95
141;BME280;65;48.778;9.160;2022-10-16T09:58:31;98682.41;;;20.65;75.47
141;BME280;65;48.778;9.160;2022-10-16T10:00:58;98669.59;;;20.86;74.91
141;BME280;65;48.778;9.160;2022-10-16T10:03:37;98674.50;;;20.91;76.47
141;BME280;65;48.778;9.160;2022-10-16T10:06:16;98679.31;;;21.14;73.17
141;BME280;65;48.778;9.160;2022-10-16T10:08:56;98689.22;;;21.41;69.13
141;BME280;65;48.778;9.160;2022-10-16T10:14:21;98694.00;;;21.48;69.31
141;BME280;65;48.778;9.160;2022-10-16T10:16:48;98698.91;;;21.52;69.06
141;BME280;65;48.778;9.160;2022-10-16T10:19:22;98698.88;;;21.88;68.92
141;BME280;65;48.778;9.160;2022-10-16T10:21:49;98699.59;;;22.07;65.27
141;BME280;65;48.778;9.160;2022-10-16T10:24:16;98698.13;;;22.13;63.05
141;BME280;65;48.778;9.160;2022-10-16T10:26:51;98696.63;;;22.19;65.78
141;BME280;65;48.778;9.160;2022-10-16T10:29:42;98696.25;;;21.96;64.19
141;BME280;65;48.778;9.160;2022-10-16T10:32:20;98690.50;;;22.34;63.97
141;BME280;65;48.778;9.160;2022-10-16T10:34:54;98695.13;;;22.50;64.22
141;BME280;65;48.778;9.160;2022-10-16T10:37:38;98679.88;;;22.59;62.42
141;BME280;65;48.778;9.160;2022-10-16T10:45:48;98689.88;;;23.09;61.82
141;BME280;65;48.778;9.160;2022-10-16T10:51:55;98692.16;;;23.38;57.79
141;BME280;65;48.778;9.160;2022-10-16T10:54:40;98695.22;;;23.51;58.39
141;BME280;65;48.778;9.160;2022-10-16T10:57:14;98696.72;;;23.45;57.83
141;BME280;65;48.778;9.160;2022-10-16T10:59:57;98696.06;;;22.59;64.92
141;BME280;65;48.778;9.160;2022-10-16T11:02:34;98697.13;;;22.74;66.22
141;BME280;65;48.778;9.160;2022-10-16T11:07:54;98692.69;;;22.91;63.86
141;BME280;65;48.778;9.160;2022-10-16T11:10:27;98688.34;;;22.64;65.94
141;BME280;65;48.778;9.160;2022-10-16T11:13:13;98683.78;;;22.64;66.60
141;BME280;65;48.778;9.160;2022-10-16T11:15:47;98695.66;;;22.80;65.48
141;BME280;65;48.778;9.160;2022-10-16T11:18:24;98691.97;;;22.81;64.48
141;BME280;65;48.778;9.160;2022-10-16T11:20:55;98687.66;;;22.62;66.13
141;BME280;65;48.778;9.160;2022-10-16T11:25:56;98684.50;;;22.75;65.90
141;BME280;65;48.778;9.160;2022-10-16T11:28:29;98683.66;;;22.74;62.70
141;BME280;65;48.778;9.160;2022-10-16T11:31:04;98689.47;;;22.87;63.33
141;BME280;65;48.778;9.160;2022-10-16T11:33:43;98683.13;;;22.70;62.43
141;BME280;65;48.778;9.160;2022-10-16T11:36:16;98688.97;;;22.92;61.90
141;BME280;65;48.778;9.160;2022-10-16T11:38:59;98678.91;;;23.02;61.30
141;BME280;65;48.778;9.160;2022-10-16T11:46:44;98681.16;;;23.15;62.49
141;BME280;65;48.778;9.160;2022-10-16T11:49:15;98685.81;;;22.96;67.18
141;BME280;65;48.778;9.160;2022-10-16T11:52:06;98679.25;;;23.07;61.93
141;BME280;65;48.778;9.160;2022-10-16T11:54:42;98676.97;;;23.20;59.78
141;BME280;65;48.778;9.160;2022-10-16T11:57:21;98671.75;;;23.27;60.67
141;BME280;65;48.778;9.160;2022-10-16T12:08:09;98661.72;;;23.78;54.99
141;BME280;65;48.778;9.160;2022-10-16T12:10:37;98671.19;;;23.82;53.72
141;BME280;65;48.778;9.160;2022-10-16T12:13:37;98659.19;;;23.92;57.33
141;BME280;65;48.778;9.160;2022-10-16T12:16:23;98666.09;;;24.11;55.07
141;BME280;65;48.778;9.160;2022-10-16T12:18:48;98660.00;;;24.17;53.12
141;BME280;65;48.778;9.160;2022-10-16T12:21:16;98656.28;;;24.35;52.15
141;BME280;65;48.778;9.160;2022-10-16T12:23:53;98660.16;;;24.40;51.85
141;BME280;65;48.778;9.160;2022-10-16T12:28:50;98674.41;;;24.73;51.76
141;BME280;65;48.778;9.160;2022-10-16T12:31:16;98677.25;;;24.80;55.12
141;BME280;65;48.778;9.160;2022-10-16T12:33:57;98678.19;;;24.56;55.36
141;BME280;65;48.778;9.160;2022-10-16T12:36:29;98673.75;;;24.71;56.18
141;BME280;65;48.778;9.160;2022-10-16T12:38:55;98676.69;;;26.08;52.49
141;BME280;65;48.778;9.160;2022-10-16T12:41:47;98674.84;;;28.55;50.39
141;BME280;65;48.778;9.160;2022-10-16T12:44:23;98663.47;;;30.67;39.88
141;BME280;65;48.778;9.160;2022-10-16T12:46:49;98663.16;;;30.95;40.54
141;BME280;65;48.778;9.160;2022-10-16T12:51:54;98663.63;;;28.71;45.16
141;BME280;65;48.778;9.160;2022-10-16T12:54:36;98672.09;;;27.41;48.84
141;BME280;65;48.778;9.160;2022-10-16T12:59:49;98669.88;;;25.13;55.59
141;BME280;65;48.778;9.160;2022-10-16T13:02:45;98679.94;;;24.33;57.39
141;BME280;65;48.778;9.160;2022-10-16T13:13:44;98683.22;;;24.67;53.35
141;BME280;65;48.778;9.160;2022-10-16T13:19:08;98690.91;;;24.31;58.43
141;BME280;65;48.778;9.160;2022-10-16T13:27:18;98687.00;;;23.69;61.42
141;BME280;65;48.778;9.160;2022-10-16T13:29:53;98687.63;;;23.38;61.56
141;BME280;65;48.778;9.160;2022-10-16T13:32:21;98689.34;;;22.97;66.77
141;BME280;65;48.778;9.160;2022-10-16T13:34:48;98691.03;;;22.98;61.40
141;BME280;65;48.778;9.160;2022-10-16T13:37:23;98691.66;;;22.84;59.60
141;BME280;65;48.778;9.160;2022-10-16T13:39:49;98693.03;;;22.62;63.08
141;BME280;65;48.778;9.160;2022-10-16T13:42:22;98688.00;;;22.67;66.55
141;BME280;65;48.778;9.160;2022-10-16T13:44:51;98692.16;;;22.87;58.53
141;BME280;65;48.778;9.160;2022-10-16T13:47:18;98685.31;;;23.01;58.13
141;BME280;65;48.778;9.160;2022-10-16T13:49:44;98700.16;;;23.05;63.61
141;BME280;65;48.778;9.160;2022-10-16T13:52:19;98686.56;;;23.23;65.39
141;BME280;65;48.778;9.160;2022-10-16T13:54:45;98689.50;;;23.54;62.96
141;BME280;65;48.778;9.160;2022-10-16T13:57:15;98687.72;;;23.71;63.44
141;BME280;65;48.778;9.160;2022-10-16T13:59:40;98688.63;;;23.37;63.47
141;BME280;65;48.778;9.160;2022-10-16T14:02:31;98683.19;;;23.21;57.83
141;BME280;65;48.778;9.160;2022-10-16T14:05:01;98695.25;;;22.66;63.44
141;BME280;65;48.778;9.160;2022-10-16T14:07:30;98691.94;;;22.21;66.14
141;BME280;65;48.778;9.160;2022-10-16T14:10:00;98689.88;;;22.15;69.73
141;BME280;65;48.778;9.160;2022-10-16T14:12:26;98689.97;;;22.05;70.47
141;BME280;65;48.778;9.160;2022-10-16T14:14:53;98687.09;;;21.89;68.74
141;BME280;65;48.778;9.160;2022-10-16T14:17:22;98687.66;;;21.74;69.76
141;BME280;65;48.778;9.160;2022-10-16T14:19:50;98694.66;;;21.85;72.08
141;BME280;65;48.778;9.160;2022-10-16T14:22:37;98688.44;;;21.67;71.14
141;BME280;65;48.778;9.160;2022-10-16T14:25:35;98694.91;;;21.56;74.77
141;BME280;65;48.778;9.160;2022-10-16T14:30:55;98697.91;;;21.71;74.46
141;BME280;65;48.778;9.160;2022-10-16T14:35:46;98702.44;;;21.70;71.11
141;BME280;65;48.778;9.160;2022-10-16T14:38:18;98705.75;;;21.64;72.69
141;BME280;65;48.778;9.160;2022-10-16T14:40:47;98708.44;;;21.64;71.13
141;BME280;65;48.778;9.160;2022-10-16T14:43:22;98705.59;;;21.66;74.67
141;BME280;65;48.778;9.160;2022-10-16T14:45:54;98704.44;;;21.68;72.86
141;BME280;65;48.778;9.160;2022-10-16T14:48:20;98714.78;;;21.81;71.96
141;BME280;65;48.778;9.160;2022-10-16T14:50:46;98711.31;;;22.24;73.99
141;BME280;65;48.778;9.160;2022-10-16T14:53:12;98705.94;;;22.24;68.63
141;BME280;65;48.778;9.160;2022-10-16T14:55:39;98709.50;;;22.33;70.03
141;BME280;65;48.778;9.160;2022-10-16T14:58:05;98712.63;;;22.20;68.77
141;BME280;65;48.778;9.160;2022-10-16T15:00:30;98709.69;;;22.57;67.59
141;BME280;65;48.778;9.160;2022-10-16T15:02:57;98710.38;;;22.93;68.26
141;BME280;65;48.778;9.160;2022-10-16T15:05:25;98702.19;;;22.77;66.72
141;BME280;65;48.778;9.160;2022-10-16T15:07:52;98704.38;;;23.08;67.07
141;BME280;65;48.778;9.160;2022-10-16T15:10:22;98701.00;;;23.06;65.99
141;BME280;65;48.778;9.160;2022-10-16T15:12:48;98709.00;;;22.29;67.68
141;BME280;65;48.778;9.160;2022-10-16T15:17:49;98708.25;;;21.84;72.58
141;BME280;65;48.778;9.160;2022-10-16T15:20:25;98718.88;;;21.67;71.99
141;BME280;65;48.778;9.160;2022-10-16T15:22:51;98709.75;;;21.60;73.49
141;BME280;65;48.778;9.160;2022-10-16T15:25:26;98706.81;;;21.54;72.94
141;BME280;65;48.778;9.160;2022-10-16T15:27:52;98708.38;;;21.29;74.25
141;BME280;65;48.778;9.160;2022-10-16T15:30:17;98703.09;;;21.09;75.31
141;BME280;65;48.778;9.160;2022-10-16T15:32:43;98702.28;;;20.81;79.93
141;BME280;65;48.778;9.160;2022-10-16T15:35:09;98702.34;;;20.62;80.96
141;BME280;65;48.778;9.160;2022-10-16T15:37:34;98710.44;;;20.52;80.56
141;BME280;65;48.778;9.160;2022-10-16T15:39:59;98715.28;;;20.39;84.61
141;BME280;65;48.778;9.160;2022-10-16T15:42:25;98708.50;;;20.26;81.60
141;BME280;65;48.778;9.160;2022-10-16T15:44:50;98705.69;;;20.17;85.96
141;BME280;65;48.778;9.160;2022-10-16T15:47:15;98708.81;;;20.13;83.92
141;BME280;65;48.778;9.160;2022-10-16T15:49:41;98714.75;;;20.07;84.09
141;BME280;65;48.778;9.160;2022-10-16T15:52:06;98711.06;;;20.08;84.58
141;BME280;65;48.778;9.160;2022-10-16T15:54:32;98717.44;;;20.07;85.64
141;BME280;65;48.778;9.160;2022-10-16T15:56:57;98721.81;;;19.98;84.43
141;BME280;65;48.778;9.160;2022-10-16T15:59:22;98715.19;;;19.93;85.54